L'Orignal, Canada
Current Conditions -  °F | °C
As of 8:00 PM on Tuesday 25 Nov 2014 (Local Time) from CYMX Reporting Station
Overcast Overcast  
Wind Chill: 31°   Ceiling: 4500
Heat Index: 39°   Visibility: 25mi
Dew Point: 27°   Wind: 14mph
Humidity: 61%   Direction: 230°SW
Pressure: 29.94"   Gusts: 26mph
Location:  45.62°N, 74.68°W
Report Text: CYMX 260100Z 23012G23KT 25SM OVC045 04/M03 A2994 RMK SC8 SLP142
Loading
Personal Weather Stations






























Interactive Weather Map New forecast layout! Learn more

10-Day Weather Forecast

Advertisements
Track Severe Weather on mobile